Time;durP1;ratioP1;P1;durP2;ratioP2;P2;SDS_P1;SDS_P2;PMS_P1;PMS_P2;Temp;Humidity;BMP_temperature;BMP_pressure;BME280_temperature;BME280_humidity;BME280_pressure;Samples;Min_cycle;Max_cycle;Signal;HPM_P1;HPM_P2
2022/07/23 00:05:26;;;;;;;;;;;;;;;;;;5984921;24;7081;-58
2022/07/23 00:07:51;;;;;;;;;;;;;;;;;;5985281;24;7010;-58
2022/07/23 00:10:29;;;;;;;;;;;;;;;;;;5985389;24;7199;-58
2022/07/23 00:12:54;;;;;;;;;;;;;;;;;;5984954;24;7188;-58
2022/07/23 00:15:20;;;;;;;;;;;;;;;;;;5960628;24;7177;-58
2022/07/23 00:17:46;;;;;;;;;;;;;;;;;;5984847;24;7694;-58
2022/07/23 00:20:12;;;;;;;;;;;;;;;;;;5984776;23;8179;-58
2022/07/23 00:23:03;;;;;;;;;;;;;;;;;;5985389;24;7150;-58
2022/07/23 00:25:28;;;;;;;;;;;;;;;;;;5985348;24;7194;-58
2022/07/23 00:27:54;;;;;;;;;;;;;;;;;;5986523;24;6921;-58
2022/07/23 00:30:19;;;;;;;;;;;;;;;;;;5986228;24;7193;-58
2022/07/23 00:33:01;;;;;;;;;;;;;;;;;;5988117;24;7067;-58
2022/07/23 00:35:28;;;;;;;;;;;;;;;;;;5987958;24;6997;-58
2022/07/23 00:44:20;;;;;;;;;;;;;;;;;;5986814;24;6922;-58
2022/07/23 00:49:48;;;;;;;;;;;;;;;;;;5988362;24;6738;-58
2022/07/23 00:52:32;;;;;;;;;;;;;;;;;;5987096;24;6919;-58
2022/07/23 00:58:01;;;;;;;;;;;;;;;;;;5986610;24;6677;-58
2022/07/23 01:00:28;;;;;;;;;;;;;;;;;;5987032;24;7191;-58
2022/07/23 01:02:54;;;;;;;;;;;;;;;;;;5986899;24;7328;-58
2022/07/23 01:05:21;;;;;;;;;;;;;;;;;;5986951;24;7088;-58
2022/07/23 01:07:51;;;;;;;;;;;;;;;;;;5986814;24;7096;-58
2022/07/23 01:10:34;;;;;;;;;;;;;;;;;;5986728;24;7055;-58
2022/07/23 01:13:02;;;;;;;;;;;;;;;;;;5986643;24;7368;-58
2022/07/23 01:15:28;;;;;;;;;;;;;;;;;;5987865;24;7072;-58
2022/07/23 01:17:54;;;;;;;;;;;;;;;;;;5986448;24;7171;-58
2022/07/23 01:20:20;;;;;;;;;;;;;;;;;;5988901;23;6888;-58
2022/07/23 01:22:57;;;;;;;;;;;;;;;;;;5986820;23;7005;-58
2022/07/23 01:25:23;;;;;;;;;;;;;;;;;;5986448;24;8025;-58
2022/07/23 01:27:48;;;;;;;;;;;;;;;;;;5987412;24;6974;-58
2022/07/23 01:30:31;;;;;;;;;;;;;;;;;;5986627;24;7285;-58
2022/07/23 01:32:57;;;;;;;;;;;;;;;;;;5987715;24;6951;-57
2022/07/23 01:35:22;;;;;;;;;;;;;;;;;;5986950;24;6953;-58
2022/07/23 01:37:58;;;;;;;;;;;;;;;;;;5986605;24;7235;-58
2022/07/23 01:40:24;;;;;;;;;;;;;;;;;;5986878;24;6966;-58
2022/07/23 01:42:50;;;;;;;;;;;;;;;;;;5987165;24;7122;-58
2022/07/23 01:45:51;;;;;;;;;;;;;;;;;;5986716;24;7019;-58
2022/07/23 01:48:16;;;;;;;;;;;;;;;;;;5986893;24;7947;-58
2022/07/23 01:50:42;;;;;;;;;;;;;;;;;;5986286;24;7279;-58
2022/07/23 01:53:28;;;;;;;;;;;;;;;;;;5987477;24;6927;-58
2022/07/23 01:55:53;;;;;;;;;;;;;;;;;;5986496;24;7412;-58
2022/07/23 01:58:19;;;;;;;;;;;;;;;;;;5987705;24;7234;-58
2022/07/23 02:00:54;;;;;;;;;;;;;;;;;;5986527;24;6904;-58
2022/07/23 02:03:20;;;;;;;;;;;;;;;;;;5987494;24;7124;-58
2022/07/23 02:05:46;;;;;;;;;;;;;;;;;;5986398;24;7155;-58
2022/07/23 02:08:11;;;;;;;;;;;;;;;;;;5986338;24;6926;-58
2022/07/23 02:10:51;;;;;;;;;;;;;;;;;;5986406;24;7218;-58
2022/07/23 02:13:18;;;;;;;;;;;;;;;;;;5986499;24;7382;-58
2022/07/23 02:16:05;;;;;;;;;;;;;;;;;;5986349;24;7457;-58
2022/07/23 02:18:50;;;;;;;;;;;;;;;;;;5986359;24;7197;-58
2022/07/23 02:21:15;;;;;;;;;;;;;;;;;;5987109;23;7195;-58
2022/07/23 02:24:05;;;;;;;;;;;;;;;;;;5986218;24;7331;-58
2022/07/23 02:26:34;;;;;;;;;;;;;;;;;;5986255;24;7404;-58
2022/07/23 02:34:57;;;;;;;;;;;;;;;;;;5996163;24;6948;-58
2022/07/23 02:37:23;;;;;;;;;;;;;;;;;;5987524;24;7298;-58
2022/07/23 02:39:48;;;;;;;;;;;;;;;;;;5986443;24;7018;-58
2022/07/23 02:42:32;;;;;;;;;;;;;;;;;;5985828;24;6914;-58
2022/07/23 02:48:00;;;;;;;;;;;;;;;;;;5986131;24;6889;-58
2022/07/23 02:50:30;;;;;;;;;;;;;;;;;;5984479;24;8713;-58
2022/07/23 02:52:55;;;;;;;;;;;;;;;;;;5985556;24;7185;-58
2022/07/23 02:55:21;;;;;;;;;;;;;;;;;;5985887;24;6991;-58
2022/07/23 02:57:46;;;;;;;;;;;;;;;;;;5986501;24;6916;-58
2022/07/23 03:00:12;;;;;;;;;;;;;;;;;;5985897;24;7187;-58
2022/07/23 03:02:38;;;;;;;;;;;;;;;;;;5985987;24;6958;-58
2022/07/23 03:05:03;;;;;;;;;;;;;;;;;;5985469;24;6936;-58
2022/07/23 03:07:29;;;;;;;;;;;;;;;;;;5985866;24;7134;-58
2022/07/23 03:09:54;;;;;;;;;;;;;;;;;;5985349;24;6949;-58
2022/07/23 03:12:20;;;;;;;;;;;;;;;;;;5985762;24;7210;-58
2022/07/23 03:14:46;;;;;;;;;;;;;;;;;;5985983;24;6954;-58
2022/07/23 03:17:11;;;;;;;;;;;;;;;;;;5985740;24;7130;-58
2022/07/23 03:19:38;;;;;;;;;;;;;;;;;;5990279;23;6969;-58
2022/07/23 03:22:04;;;;;;;;;;;;;;;;;;5986630;24;6926;-59
2022/07/23 03:25:03;;;;;;;;;;;;;;;;;;5986381;24;7292;-58
2022/07/23 03:27:30;;;;;;;;;;;;;;;;;;5985593;24;7165;-58
2022/07/23 03:30:15;;;;;;;;;;;;;;;;;;5985401;24;7149;-58
2022/07/23 03:32:40;;;;;;;;;;;;;;;;;;5985704;24;7183;-58
2022/07/23 03:38:12;;;;;;;;;;;;;;;;;;5985225;24;6685;-58
2022/07/23 03:40:39;;;;;;;;;;;;;;;;;;5986358;24;7044;-58
2022/07/23 03:43:04;;;;;;;;;;;;;;;;;;5985594;24;6951;-58
2022/07/23 03:45:30;;;;;;;;;;;;;;;;;;5985276;24;7153;-58
2022/07/23 03:47:56;;;;;;;;;;;;;;;;;;5960528;24;8387;-58
2022/07/23 03:50:38;;;;;;;;;;;;;;;;;;5986011;24;6918;-58
2022/07/23 03:53:03;;;;;;;;;;;;;;;;;;5986351;24;7194;-58
2022/07/23 03:55:33;;;;;;;;;;;;;;;;;;5985434;24;7128;-58
2022/07/23 03:57:58;;;;;;;;;;;;;;;;;;5985678;24;7144;-58
2022/07/23 04:00:26;;;;;;;;;;;;;;;;;;5985173;24;7198;-58
2022/07/23 04:02:51;;;;;;;;;;;;;;;;;;5985073;24;7210;-58
2022/07/23 04:05:17;;;;;;;;;;;;;;;;;;5985651;24;6905;-58
2022/07/23 04:10:46;;;;;;;;;;;;;;;;;;5985108;24;6738;-58
2022/07/23 04:13:30;;;;;;;;;;;;;;;;;;5960597;24;8633;-58
2022/07/23 04:15:55;;;;;;;;;;;;;;;;;;5984949;24;7143;-58
2022/07/23 04:18:23;;;;;;;;;;;;;;;;;;5985311;24;7102;-58
2022/07/23 04:20:58;;;;;;;;;;;;;;;;;;5997254;23;7219;-58
2022/07/23 04:26:26;;;;;;;;;;;;;;;;;;5985174;24;6971;-57
2022/07/23 04:29:01;;;;;;;;;;;;;;;;;;5984732;24;6995;-58
2022/07/23 04:31:26;;;;;;;;;;;;;;;;;;5985056;24;6957;-58
2022/07/23 04:37:29;;;;;;;;;;;;;;;;;;5985436;24;6899;-58
2022/07/23 04:40:13;;;;;;;;;;;;;;;;;;5985092;24;7182;-58
2022/07/23 04:42:39;;;;;;;;;;;;;;;;;;5984847;24;6947;-57
2022/07/23 04:45:05;;;;;;;;;;;;;;;;;;5985266;24;7196;-58
2022/07/23 04:47:31;;;;;;;;;;;;;;;;;;5984906;24;6907;-58
2022/07/23 04:49:57;;;;;;;;;;;;;;;;;;5985047;24;6922;-58
2022/07/23 04:52:32;;;;;;;;;;;;;;;;;;5985746;24;7126;-58
2022/07/23 04:55:26;;;;;;;;;;;;;;;;;;5985510;24;7016;-58
2022/07/23 04:57:52;;;;;;;;;;;;;;;;;;5985038;24;8014;-57
2022/07/23 05:00:17;;;;;;;;;;;;;;;;;;5985944;24;7083;-57
2022/07/23 05:03:07;;;;;;;;;;;;;;;;;;5985365;24;6995;-57
2022/07/23 05:05:32;;;;;;;;;;;;;;;;;;5985365;24;7177;-57
2022/07/23 05:07:58;;;;;;;;;;;;;;;;;;5985126;24;7202;-58
2022/07/23 05:10:24;;;;;;;;;;;;;;;;;;5985129;24;7188;-58
2022/07/23 05:12:49;;;;;;;;;;;;;;;;;;5985103;24;7170;-58
2022/07/23 05:15:15;;;;;;;;;;;;;;;;;;5985056;24;7044;-58
2022/07/23 05:17:40;;;;;;;;;;;;;;;;;;5986625;24;7125;-58
2022/07/23 05:20:06;;;;;;;;;;;;;;;;;;5986759;24;7384;-57
2022/07/23 05:22:32;;;;;;;;;;;;;;;;;;5997075;23;6906;-58
2022/07/23 05:24:58;;;;;;;;;;;;;;;;;;5985398;24;7204;-58
2022/07/23 05:27:24;;;;;;;;;;;;;;;;;;5984617;24;7383;-58
2022/07/23 05:29:50;;;;;;;;;;;;;;;;;;5986308;24;6954;-58
2022/07/23 05:32:15;;;;;;;;;;;;;;;;;;5986627;24;6924;-58
2022/07/23 05:34:41;;;;;;;;;;;;;;;;;;5961705;24;8390;-58
2022/07/23 05:37:06;;;;;;;;;;;;;;;;;;5986598;24;7268;-58
2022/07/23 05:39:37;;;;;;;;;;;;;;;;;;5985822;24;7495;-58
2022/07/23 05:45:06;;;;;;;;;;;;;;;;;;5986270;24;6884;-58
2022/07/23 05:47:46;;;;;;;;;;;;;;;;;;5986507;24;7167;-58
2022/07/23 05:50:19;;;;;;;;;;;;;;;;;;5986528;24;7401;-58
2022/07/23 05:52:45;;;;;;;;;;;;;;;;;;5986419;24;6954;-58
2022/07/23 05:55:12;;;;;;;;;;;;;;;;;;5986698;24;7290;-58
2022/07/23 05:57:38;;;;;;;;;;;;;;;;;;5986621;24;7116;-57
2022/07/23 06:00:23;;;;;;;;;;;;;;;;;;5986549;24;7343;-58
2022/07/23 06:02:49;;;;;;;;;;;;;;;;;;5986140;24;7063;-58
2022/07/23 06:05:15;;;;;;;;;;;;;;;;;;5986029;24;7381;-58
2022/07/23 06:07:50;;;;;;;;;;;;;;;;;;5986459;24;7346;-58
2022/07/23 06:10:16;;;;;;;;;;;;;;;;;;5986227;24;7171;-58
2022/07/23 06:13:10;;;;;;;;;;;;;;;;;;5986349;24;7429;-58
2022/07/23 06:15:35;;;;;;;;;;;;;;;;;;5987477;24;7708;-58
2022/07/23 06:18:01;;;;;;;;;;;;;;;;;;5987424;24;7092;-58
2022/07/23 06:20:51;;;;;;;;;;;;;;;;;;5986378;24;7151;-58
2022/07/23 06:23:42;;;;;;;;;;;;;;;;;;5985660;23;7384;-58
2022/07/23 06:26:08;;;;;;;;;;;;;;;;;;5987020;24;7106;-58
2022/07/23 06:28:33;;;;;;;;;;;;;;;;;;5961046;24;8804;-58
2022/07/23 06:31:10;;;;;;;;;;;;;;;;;;5985759;24;7195;-58
2022/07/23 06:33:35;;;;;;;;;;;;;;;;;;5985789;24;8104;-58
2022/07/23 06:36:01;;;;;;;;;;;;;;;;;;5986120;24;7335;-58
2022/07/23 06:41:53;;;;;;;;;;;;;;;;;;5985920;24;7367;-58
2022/07/23 06:44:19;;;;;;;;;;;;;;;;;;5986373;24;7124;-58
2022/07/23 06:52:50;;;;;;;;;;;;;;;;;;5985933;24;6950;-58
2022/07/23 06:58:19;;;;;;;;;;;;;;;;;;5985701;24;6888;-58
2022/07/23 07:00:46;;;;;;;;;;;;;;;;;;5985608;24;7177;-58
2022/07/23 07:06:02;;;;;;;;;;;;;;;;;;5995331;24;7053;-58
2022/07/23 07:08:45;;;;;;;;;;;;;;;;;;5983088;24;7322;-58
2022/07/23 07:11:11;;;;;;;;;;;;;;;;;;5985115;24;6969;-58
2022/07/23 07:13:37;;;;;;;;;;;;;;;;;;5984192;24;7171;-58
2022/07/23 07:16:03;;;;;;;;;;;;;;;;;;5983710;24;6967;-58
2022/07/23 07:18:28;;;;;;;;;;;;;;;;;;5983910;24;6928;-58
2022/07/23 07:21:01;;;;;;;;;;;;;;;;;;5983275;24;7140;-58
2022/07/23 07:23:26;;;;;;;;;;;;;;;;;;5984075;23;6988;-58
2022/07/23 07:25:52;;;;;;;;;;;;;;;;;;5982852;24;7148;-58
2022/07/23 07:28:41;;;;;;;;;;;;;;;;;;5984977;24;7207;-58
2022/07/23 07:31:07;;;;;;;;;;;;;;;;;;5985658;24;7354;-58
2022/07/23 07:33:33;;;;;;;;;;;;;;;;;;5985627;24;7350;-58
2022/07/23 07:36:17;;;;;;;;;;;;;;;;;;5985594;24;6961;-58
2022/07/23 07:38:42;;;;;;;;;;;;;;;;;;5985625;24;7025;-58
2022/07/23 07:41:32;;;;;;;;;;;;;;;;;;5985789;24;7006;-58
2022/07/23 07:44:27;;;;;;;;;;;;;;;;;;5985216;24;6934;-58
2022/07/23 07:46:52;;;;;;;;;;;;;;;;;;5986240;24;7351;-58
2022/07/23 07:49:26;;;;;;;;;;;;;;;;;;5985385;24;7284;-58
2022/07/23 07:51:52;;;;;;;;;;;;;;;;;;5985437;24;7286;-58
2022/07/23 07:57:39;;;;;;;;;;;;;;;;;;5985113;24;6931;-59
2022/07/23 08:00:07;;;;;;;;;;;;;;;;;;5984495;24;7399;-59
2022/07/23 08:02:40;;;;;;;;;;;;;;;;;;5984996;24;7123;-59
2022/07/23 08:05:20;;;;;;;;;;;;;;;;;;5985157;24;6948;-58
2022/07/23 08:07:46;;;;;;;;;;;;;;;;;;5985875;24;7272;-57
2022/07/23 08:10:21;;;;;;;;;;;;;;;;;;5985307;24;7485;-57
2022/07/23 08:12:49;;;;;;;;;;;;;;;;;;5985020;24;8197;-57
2022/07/23 08:15:41;;;;;;;;;;;;;;;;;;5986133;24;7171;-57
2022/07/23 08:18:06;;;;;;;;;;;;;;;;;;5985257;24;7115;-56
2022/07/23 08:20:40;;;;;;;;;;;;;;;;;;5985368;24;7375;-57
2022/07/23 08:26:18;;;;;;;;;;;;;;;;;;5985121;24;6960;-58
2022/07/23 08:29:10;;;;;;;;;;;;;;;;;;5985044;24;7153;-57
2022/07/23 08:31:35;;;;;;;;;;;;;;;;;;5985127;24;7425;-57
2022/07/23 08:34:02;;;;;;;;;;;;;;;;;;5985059;24;7441;-58
2022/07/23 08:36:28;;;;;;;;;;;;;;;;;;5982555;24;7330;-58
2022/07/23 08:38:56;;;;;;;;;;;;;;;;;;5984348;24;7050;-58
2022/07/23 08:41:22;;;;;;;;;;;;;;;;;;5983971;24;7511;-57
2022/07/23 08:43:47;;;;;;;;;;;;;;;;;;5983792;24;6998;-58
2022/07/23 08:46:13;;;;;;;;;;;;;;;;;;5984367;24;7044;-58
2022/07/23 09:01:06;;;;;;;;;;;;;;;;;;5986675;24;6880;-53
2022/07/23 09:03:33;;;;;;;;;;;;;;;;;;5986905;24;7022;-53
2022/07/23 09:06:12;;;;;;;;;;;;;;;;;;5987091;24;7259;-53
2022/07/23 09:08:41;;;;;;;;;;;;;;;;;;5986727;24;7252;-51
2022/07/23 09:11:08;;;;;;;;;;;;;;;;;;5987076;24;7431;-49
2022/07/23 09:13:36;;;;;;;;;;;;;;;;;;5986617;24;7209;-51
2022/07/23 09:16:07;;;;;;;;;;;;;;;;;;5986450;24;8082;-54
2022/07/23 09:18:38;;;;;;;;;;;;;;;;;;5986287;24;6973;-51
2022/07/23 09:24:08;;;;;;;;;;;;;;;;;;5995593;23;7106;-54
2022/07/23 09:27:03;;;;;;;;;;;;;;;;;;5986393;23;7391;-48
2022/07/23 09:29:29;;;;;;;;;;;;;;;;;;5984201;24;7934;-47
2022/07/23 09:32:07;;;;;;;;;;;;;;;;;;5984718;24;7463;-48
2022/07/23 09:34:40;;;;;;;;;;;;;;;;;;5984966;24;7116;-49
2022/07/23 09:37:15;;;;;;;;;;;;;;;;;;5985165;24;7098;-47
2022/07/23 09:39:42;;;;;;;;;;;;;;;;;;5985364;24;7063;-47
2022/07/23 09:42:25;;;;;;;;;;;;;;;;;;5986499;24;7429;-49
2022/07/23 09:44:52;;;;;;;;;;;;;;;;;;5986250;24;7096;-53
2022/07/23 09:47:24;;;;;;;;;;;;;;;;;;5987034;24;7216;-49
2022/07/23 09:50:03;;;;;;;;;;;;;;;;;;5986282;24;7124;-47
2022/07/23 09:52:49;;;;;;;;;;;;;;;;;;5986646;24;7278;-48
2022/07/23 09:55:16;;;;;;;;;;;;;;;;;;5961616;24;7357;-47
2022/07/23 09:57:51;;;;;;;;;;;;;;;;;;5986079;24;7173;-45
2022/07/23 10:00:17;;;;;;;;;;;;;;;;;;5986229;24;7132;-48
2022/07/23 10:02:46;;;;;;;;;;;;;;;;;;5985743;24;7227;-52
2022/07/23 10:05:30;;;;;;;;;;;;;;;;;;5986576;24;7183;-51
2022/07/23 10:07:57;;;;;;;;;;;;;;;;;;5985607;24;6969;-48
2022/07/23 10:10:35;;;;;;;;;;;;;;;;;;5985703;24;7324;-51
2022/07/23 10:13:23;;;;;;;;;;;;;;;;;;5986343;24;7381;-50
2022/07/23 10:15:49;;;;;;;;;;;;;;;;;;5986072;24;6984;-55
2022/07/23 10:18:15;;;;;;;;;;;;;;;;;;5986126;24;6954;-46
2022/07/23 10:23:49;;;;;;;;;;;;;;;;;;5994039;23;7022;-47
2022/07/23 10:26:24;;;;;;;;;;;;;;;;;;5985376;24;8406;-51
2022/07/23 10:29:09;;;;;;;;;;;;;;;;;;5985134;24;7089;-52
2022/07/23 10:32:07;;;;;;;;;;;;;;;;;;5956263;24;7177;-53
2022/07/23 10:37:40;;;;;;;;;;;;;;;;;;5995407;24;6914;-51
2022/07/23 10:40:16;;;;;;;;;;;;;;;;;;5985420;24;8617;-53
2022/07/23 10:42:43;;;;;;;;;;;;;;;;;;5986037;24;7178;-53
2022/07/23 10:48:14;;;;;;;;;;;;;;;;;;5985614;24;7152;-54
2022/07/23 10:54:13;;;;;;;;;;;;;;;;;;5985503;24;6688;-53
2022/07/23 10:56:51;;;;;;;;;;;;;;;;;;5985278;24;7049;-52
2022/07/23 10:59:16;;;;;;;;;;;;;;;;;;5985433;24;7038;-52
2022/07/23 11:01:42;;;;;;;;;;;;;;;;;;5985836;24;7126;-54
2022/07/23 11:04:08;;;;;;;;;;;;;;;;;;5985696;24;7464;-55
2022/07/23 11:06:49;;;;;;;;;;;;;;;;;;5985513;24;7210;-50
2022/07/23 11:09:33;;;;;;;;;;;;;;;;;;5985640;24;6980;-49
2022/07/23 11:12:33;;;;;;;;;;;;;;;;;;5985633;24;7411;-49
2022/07/23 11:15:01;;;;;;;;;;;;;;;;;;5985338;24;6977;-50
2022/07/23 11:17:31;;;;;;;;;;;;;;;;;;5985633;24;7209;-50
2022/07/23 11:20:08;;;;;;;;;;;;;;;;;;5985570;24;7200;-53
2022/07/23 11:22:40;;;;;;;;;;;;;;;;;;5986078;24;7197;-50
2022/07/23 11:25:30;;;;;;;;;;;;;;;;;;5985219;23;7208;-48
2022/07/23 11:30:52;;;;;;;;;;;;;;;;;;5985202;24;6829;-51
2022/07/23 11:33:35;;;;;;;;;;;;;;;;;;5985318;24;7041;-54
2022/07/23 11:36:02;;;;;;;;;;;;;;;;;;5960656;24;8484;-53
2022/07/23 11:38:38;;;;;;;;;;;;;;;;;;5984822;24;7234;-55
2022/07/23 11:41:04;;;;;;;;;;;;;;;;;;5985498;24;7041;-51
2022/07/23 11:43:36;;;;;;;;;;;;;;;;;;5985287;24;7024;-50
2022/07/23 11:46:02;;;;;;;;;;;;;;;;;;5985258;24;7222;-54
2022/07/23 11:51:39;;;;;;;;;;;;;;;;;;5985408;24;6970;-51
2022/07/23 11:54:06;;;;;;;;;;;;;;;;;;5985381;24;7086;-51
2022/07/23 11:59:36;;;;;;;;;;;;;;;;;;5985207;24;6911;-54
2022/07/23 12:02:10;;;;;;;;;;;;;;;;;;5986041;24;7271;-51
2022/07/23 12:04:43;;;;;;;;;;;;;;;;;;5984547;24;7050;-52
2022/07/23 12:10:30;;;;;;;;;;;;;;;;;;5985046;24;6767;-50
2022/07/23 12:12:58;;;;;;;;;;;;;;;;;;5984943;24;7096;-53
2022/07/23 12:16:01;;;;;;;;;;;;;;;;;;5985193;24;7040;-51
2022/07/23 12:18:27;;;;;;;;;;;;;;;;;;5984946;24;6950;-51
2022/07/23 12:24:05;;;;;;;;;;;;;;;;;;5985865;23;6921;-52
2022/07/23 12:26:31;;;;;;;;;;;;;;;;;;5985666;24;7215;-53
2022/07/23 12:28:59;;;;;;;;;;;;;;;;;;5986584;24;7428;-54
2022/07/23 12:31:27;;;;;;;;;;;;;;;;;;5986961;24;7410;-52
2022/07/23 12:36:48;;;;;;;;;;;;;;;;;;5996390;24;6776;-51
2022/07/23 12:42:24;;;;;;;;;;;;;;;;;;5987115;24;6927;-48
2022/07/23 12:45:11;;;;;;;;;;;;;;;;;;5986696;24;7323;-49
2022/07/23 12:48:01;;;;;;;;;;;;;;;;;;5986526;24;6959;-54
2022/07/23 12:50:31;;;;;;;;;;;;;;;;;;5986363;24;7046;-53
2022/07/23 12:53:27;;;;;;;;;;;;;;;;;;5987005;24;7195;-53
2022/07/23 12:55:59;;;;;;;;;;;;;;;;;;5986706;24;7011;-51
2022/07/23 13:01:30;;;;;;;;;;;;;;;;;;5986565;24;6710;-51
2022/07/23 13:04:33;;;;;;;;;;;;;;;;;;5987456;24;7164;-51
2022/07/23 13:07:02;;;;;;;;;;;;;;;;;;5986884;24;7343;-49
2022/07/23 13:12:34;;;;;;;;;;;;;;;;;;5986447;24;6890;-51
2022/07/23 13:14:59;;;;;;;;;;;;;;;;;;5986740;24;7257;-52
2022/07/23 13:17:31;;;;;;;;;;;;;;;;;;5985854;24;7467;-55
2022/07/23 13:19:56;;;;;;;;;;;;;;;;;;6011660;23;7460;-58
2022/07/23 13:22:22;;;;;;;;;;;;;;;;;;6014639;23;7246;-57
2022/07/23 13:24:47;;;;;;;;;;;;;;;;;;6012780;23;7054;-57
2022/07/23 13:27:13;;;;;;;;;;;;;;;;;;6014461;23;7117;-59
2022/07/23 13:29:38;;;;;;;;;;;;;;;;;;6014494;23;7584;-60
2022/07/23 13:32:16;;;;;;;;;;;;;;;;;;6014842;23;7377;-58
2022/07/23 13:34:42;;;;;;;;;;;;;;;;;;6014301;23;7174;-58
2022/07/23 13:37:10;;;;;;;;;;;;;;;;;;6013697;23;7470;-59
2022/07/23 13:39:35;;;;;;;;;;;;;;;;;;6014431;23;6983;-53
2022/07/23 13:42:02;;;;;;;;;;;;;;;;;;6014609;23;7175;-55
2022/07/23 13:44:28;;;;;;;;;;;;;;;;;;6014546;23;7159;-58
2022/07/23 13:46:53;;;;;;;;;;;;;;;;;;6014163;23;7158;-55
2022/07/23 13:49:19;;;;;;;;;;;;;;;;;;6013343;23;7066;-58
2022/07/23 13:51:44;;;;;;;;;;;;;;;;;;6013870;23;7203;-58
2022/07/23 13:54:10;;;;;;;;;;;;;;;;;;6014119;23;7200;-57
2022/07/23 13:56:36;;;;;;;;;;;;;;;;;;6014622;23;7310;-56
2022/07/23 13:59:01;;;;;;;;;;;;;;;;;;6014217;23;7251;-55
2022/07/23 14:07:33;;;;;;;;;;;;;;;;;;6013826;23;6726;-58
2022/07/23 14:10:08;;;;;;;;;;;;;;;;;;6014078;23;7259;-58
2022/07/23 14:12:34;;;;;;;;;;;;;;;;;;6014519;23;7246;-58
2022/07/23 14:14:59;;;;;;;;;;;;;;;;;;6013604;23;7051;-58
2022/07/23 14:17:26;;;;;;;;;;;;;;;;;;6014024;23;7203;-58
2022/07/23 14:19:52;;;;;;;;;;;;;;;;;;6016899;23;8443;-61
2022/07/23 14:22:17;;;;;;;;;;;;;;;;;;6042434;23;6978;-58
2022/07/23 14:24:43;;;;;;;;;;;;;;;;;;6042681;23;7264;-57
2022/07/23 14:27:20;;;;;;;;;;;;;;;;;;6042100;23;8195;-59
2022/07/23 14:29:45;;;;;;;;;;;;;;;;;;6041408;23;7053;-55
2022/07/23 14:32:17;;;;;;;;;;;;;;;;;;6042150;23;7180;-58
2022/07/23 14:34:43;;;;;;;;;;;;;;;;;;6042411;23;7226;-56
2022/07/23 14:37:11;;;;;;;;;;;;;;;;;;6041746;23;6958;-58
2022/07/23 14:39:36;;;;;;;;;;;;;;;;;;6041681;23;7174;-57
2022/07/23 14:45:11;;;;;;;;;;;;;;;;;;6042174;23;6960;-56
2022/07/23 14:47:36;;;;;;;;;;;;;;;;;;6042322;23;7231;-57
2022/07/23 14:50:14;;;;;;;;;;;;;;;;;;6041543;23;7073;-55
2022/07/23 14:52:40;;;;;;;;;;;;;;;;;;6042459;23;7254;-57
2022/07/23 14:55:05;;;;;;;;;;;;;;;;;;6042337;23;7182;-57
2022/07/23 14:57:42;;;;;;;;;;;;;;;;;;6042134;23;6948;-57
2022/07/23 15:00:08;;;;;;;;;;;;;;;;;;6042118;23;7123;-57
2022/07/23 15:02:36;;;;;;;;;;;;;;;;;;6041904;23;6952;-57
2022/07/23 15:05:02;;;;;;;;;;;;;;;;;;6042119;23;7136;-57
2022/07/23 15:10:42;;;;;;;;;;;;;;;;;;6042005;23;6949;-59
2022/07/23 15:13:08;;;;;;;;;;;;;;;;;;6041926;23;7181;-59
2022/07/23 15:16:12;;;;;;;;;;;;;;;;;;6041605;23;7404;-60
2022/07/23 15:18:44;;;;;;;;;;;;;;;;;;5971613;24;7041;-58
2022/07/23 15:21:10;;;;;;;;;;;;;;;;;;5954407;24;7177;-58
2022/07/23 15:26:35;;;;;;;;;;;;;;;;;;5963983;24;6966;-58
2022/07/23 15:29:20;;;;;;;;;;;;;;;;;;5896191;23;11988;-58
2022/07/23 15:31:46;;;;;;;;;;;;;;;;;;5927724;24;7280;-58
2022/07/23 15:37:33;;;;;;;;;;;;;;;;;;5927607;24;7049;-58
2022/07/23 15:39:58;;;;;;;;;;;;;;;;;;5927350;24;7577;-58
2022/07/23 15:42:52;;;;;;;;;;;;;;;;;;5927468;24;6967;-58
2022/07/23 15:45:17;;;;;;;;;;;;;;;;;;5982011;23;7281;-77
2022/07/23 15:47:43;;;;;;;;;;;;;;;;;;6042939;23;8388;-77
2022/07/23 15:50:09;;;;;;;;;;;;;;;;;;6043078;23;8434;-77
2022/07/23 15:52:36;;;;;;;;;;;;;;;;;;5996039;24;7054;-77
2022/07/23 15:55:03;;;;;;;;;;;;;;;;;;5994099;24;7118;-77
2022/07/23 15:57:28;;;;;;;;;;;;;;;;;;5995269;24;8459;-78
2022/07/23 15:59:56;;;;;;;;;;;;;;;;;;6042141;23;8380;-77
2022/07/23 16:02:22;;;;;;;;;;;;;;;;;;6043697;23;8467;-77
2022/07/23 16:04:48;;;;;;;;;;;;;;;;;;5995408;24;8863;-78
2022/07/23 16:07:13;;;;;;;;;;;;;;;;;;5997307;24;8496;-78
2022/07/23 16:09:39;;;;;;;;;;;;;;;;;;6041191;23;8660;-88
2022/07/23 16:12:04;;;;;;;;;;;;;;;;;;6041770;23;7134;-77
2022/07/23 16:14:29;;;;;;;;;;;;;;;;;;6044105;23;7163;-76
2022/07/23 16:16:55;;;;;;;;;;;;;;;;;;6043637;23;8624;-76
2022/07/23 16:19:20;;;;;;;;;;;;;;;;;;6043001;23;8435;-82
2022/07/23 16:21:47;;;;;;;;;;;;;;;;;;6043240;23;9052;-77
2022/07/23 16:24:13;;;;;;;;;;;;;;;;;;6041541;23;7223;-83
2022/07/23 16:26:38;;;;;;;;;;;;;;;;;;6040618;23;8471;-84
2022/07/23 16:29:04;;;;;;;;;;;;;;;;;;6041534;23;8497;-85
2022/07/23 16:31:31;;;;;;;;;;;;;;;;;;5989898;24;7185;-82
2022/07/23 16:33:57;;;;;;;;;;;;;;;;;;6033898;23;7006;-81
2022/07/23 16:36:22;;;;;;;;;;;;;;;;;;6041221;23;8482;-76
2022/07/23 16:38:47;;;;;;;;;;;;;;;;;;6037850;23;8374;-78
2022/07/23 16:41:13;;;;;;;;;;;;;;;;;;6036333;23;7023;-85
2022/07/23 16:43:38;;;;;;;;;;;;;;;;;;6040145;23;7152;-76
2022/07/23 16:46:06;;;;;;;;;;;;;;;;;;5982871;24;8374;-83
2022/07/23 16:48:32;;;;;;;;;;;;;;;;;;5982168;24;7068;-84
2022/07/23 16:50:57;;;;;;;;;;;;;;;;;;6029530;23;8386;-86
2022/07/23 16:53:23;;;;;;;;;;;;;;;;;;6030939;23;8275;-86
2022/07/23 16:55:48;;;;;;;;;;;;;;;;;;6030895;23;7115;-86
2022/07/23 16:58:14;;;;;;;;;;;;;;;;;;6030870;23;8560;-85
2022/07/23 17:00:40;;;;;;;;;;;;;;;;;;6030554;23;8779;-85
2022/07/23 17:03:06;;;;;;;;;;;;;;;;;;5983742;24;8535;-86
2022/07/23 17:05:31;;;;;;;;;;;;;;;;;;6030814;23;6818;-88
2022/07/23 17:07:58;;;;;;;;;;;;;;;;;;5984702;24;8900;-85
2022/07/23 17:10:24;;;;;;;;;;;;;;;;;;5983354;24;8520;-86
2022/07/23 17:12:50;;;;;;;;;;;;;;;;;;5985238;24;6944;-85
2022/07/23 17:15:17;;;;;;;;;;;;;;;;;;5985300;24;8469;-85
2022/07/23 17:17:42;;;;;;;;;;;;;;;;;;5985140;24;8389;-85
2022/07/23 17:20:08;;;;;;;;;;;;;;;;;;6030674;23;8932;-85
2022/07/23 17:22:34;;;;;;;;;;;;;;;;;;5983280;24;8407;-84
2022/07/23 17:24:59;;;;;;;;;;;;;;;;;;5983459;24;6886;-85
2022/07/23 17:27:25;;;;;;;;;;;;;;;;;;6031000;23;7011;-85
2022/07/23 17:29:51;;;;;;;;;;;;;;;;;;5983308;24;8451;-86
2022/07/23 17:32:16;;;;;;;;;;;;;;;;;;5984389;24;8646;-86
2022/07/23 17:34:42;;;;;;;;;;;;;;;;;;6032258;23;8476;-86
2022/07/23 17:37:07;;;;;;;;;;;;;;;;;;6032258;23;8383;-86
2022/07/23 17:39:33;;;;;;;;;;;;;;;;;;6032463;23;8360;-85
2022/07/23 17:41:59;;;;;;;;;;;;;;;;;;5985325;24;7151;-87
2022/07/23 17:44:24;;;;;;;;;;;;;;;;;;5984746;24;8452;-86
2022/07/23 17:46:50;;;;;;;;;;;;;;;;;;6008971;23;8682;-87
2022/07/23 17:49:15;;;;;;;;;;;;;;;;;;6032601;23;8374;-86
2022/07/23 17:51:41;;;;;;;;;;;;;;;;;;6032206;23;8407;-86
2022/07/23 17:54:06;;;;;;;;;;;;;;;;;;6031969;23;7154;-87
2022/07/23 17:56:33;;;;;;;;;;;;;;;;;;5985138;24;9207;-85
2022/07/23 17:58:59;;;;;;;;;;;;;;;;;;5985068;24;7078;-86
2022/07/23 18:01:24;;;;;;;;;;;;;;;;;;5985357;24;8486;-85
2022/07/23 18:03:50;;;;;;;;;;;;;;;;;;6032054;23;7180;-85
2022/07/23 18:06:17;;;;;;;;;;;;;;;;;;5986233;24;7173;-86
2022/07/23 18:08:43;;;;;;;;;;;;;;;;;;5985538;24;7940;-86
2022/07/23 18:11:09;;;;;;;;;;;;;;;;;;5984707;24;7528;-85
2022/07/23 18:13:35;;;;;;;;;;;;;;;;;;5985411;24;8632;-87
2022/07/23 18:16:01;;;;;;;;;;;;;;;;;;6032773;23;8386;-86
2022/07/23 18:18:27;;;;;;;;;;;;;;;;;;5986959;24;8315;-84
2022/07/23 18:20:56;;;;;;;;;;;;;;;;;;5985066;24;8500;-86
2022/07/23 18:23:22;;;;;;;;;;;;;;;;;;5985452;24;7075;-84
2022/07/23 18:25:48;;;;;;;;;;;;;;;;;;5985192;24;8432;-85
2022/07/23 18:28:13;;;;;;;;;;;;;;;;;;5984727;24;8448;-85
2022/07/23 18:30:39;;;;;;;;;;;;;;;;;;5986110;24;8785;-85
2022/07/23 18:33:04;;;;;;;;;;;;;;;;;;5985140;24;8400;-86
2022/07/23 18:35:30;;;;;;;;;;;;;;;;;;6032289;23;8865;-84
2022/07/23 18:37:56;;;;;;;;;;;;;;;;;;5984815;24;7079;-84
2022/07/23 18:40:21;;;;;;;;;;;;;;;;;;6031993;23;7502;-85
2022/07/23 18:42:48;;;;;;;;;;;;;;;;;;6031721;23;8716;-85
2022/07/23 18:45:13;;;;;;;;;;;;;;;;;;5985105;24;8398;-85
2022/07/23 18:47:40;;;;;;;;;;;;;;;;;;5984538;24;7948;-86
2022/07/23 18:50:07;;;;;;;;;;;;;;;;;;5986318;24;7601;-84
2022/07/23 18:52:33;;;;;;;;;;;;;;;;;;5985173;24;7208;-84
2022/07/23 18:54:58;;;;;;;;;;;;;;;;;;5984605;24;8431;-86
2022/07/23 18:57:24;;;;;;;;;;;;;;;;;;6031688;23;8428;-87
2022/07/23 18:59:49;;;;;;;;;;;;;;;;;;6032140;23;8382;-87
2022/07/23 19:02:16;;;;;;;;;;;;;;;;;;6031602;23;8799;-86
2022/07/23 19:04:42;;;;;;;;;;;;;;;;;;5984758;24;8501;-87
2022/07/23 19:07:08;;;;;;;;;;;;;;;;;;5984621;24;8686;-87
2022/07/23 19:09:33;;;;;;;;;;;;;;;;;;6031280;23;8648;-85
2022/07/23 19:11:59;;;;;;;;;;;;;;;;;;6032482;23;8411;-87
2022/07/23 19:14:25;;;;;;;;;;;;;;;;;;6031606;23;8422;-87
2022/07/23 19:16:51;;;;;;;;;;;;;;;;;;6031763;23;7133;-87
2022/07/23 19:19:16;;;;;;;;;;;;;;;;;;5984137;24;7118;-87
2022/07/23 19:21:42;;;;;;;;;;;;;;;;;;5984806;24;6828;-86
2022/07/23 19:24:08;;;;;;;;;;;;;;;;;;5984904;24;8414;-87
2022/07/23 19:26:33;;;;;;;;;;;;;;;;;;5983655;24;8390;-88
2022/07/23 19:28:59;;;;;;;;;;;;;;;;;;6031767;23;7348;-87
2022/07/23 19:31:24;;;;;;;;;;;;;;;;;;6031677;23;7575;-89
2022/07/23 19:33:50;;;;;;;;;;;;;;;;;;6031245;23;8397;-87
2022/07/23 19:36:15;;;;;;;;;;;;;;;;;;6031023;23;8559;-87
2022/07/23 19:38:42;;;;;;;;;;;;;;;;;;5984289;24;7153;-87